
Distance (Route):
Temperature : -52.7°C
Humidity : 33.7%
Pressure : 0hPa| Receiver | Date | Latitude | Longitude | Direction | Speed | Altitude | Climb | Temperature | Humidity | Pressure | Voltage | Killtimer | Uptime | BKT | XDATA |
|---|---|---|---|---|---|---|---|---|---|---|---|---|---|---|---|
| LZ4TU-5 | 2026-08-31 12:53:36 | 44.73032 | 20.93296 | 121° | 91km/h | 11833m | -25.6m/s | -52.7°C | 33.7% | 0hPa | 5.5V | 00:00:00 | 00:00:00 | 00:00:00 | |
| LZ4TU-5 | 2026-08-31 12:53:30 | 44.73088 | 20.93156 | 120° | 91km/h | 11962m | -25.8m/s | -53.6°C | 31.4% | 0hPa | 5.5V | 00:00:00 | 00:00:00 | 00:00:00 | |
| LZ4TU-5 | 2026-08-31 12:48:17 | 44.73664 | 20.89616 | 43° | 13km/h | 24029m | -62.6m/s | -50.9°C | 0.0% | 0hPa | 5.5V | 00:00:00 | 00:00:00 | 00:00:00 | |
| LZ4TU-5 | 2026-08-31 12:48:12 | 44.73655 | 20.89599 | 69° | 15km/h | 24346m | -63.2m/s | -51.3°C | 0.0% | 0hPa | 5.5V | 00:00:00 | 00:00:00 | 00:00:00 | |
| LZ4TU-5 | 2026-08-31 12:48:07 | 44.73651 | 20.89574 | 83° | 9km/h | 24674m | -64.9m/s | -50.2°C | 0.0% | 0hPa | 5.5V | 00:00:00 | 00:00:00 | 00:00:00 | |
| LZ4TU-5 | 2026-08-31 12:46:14 | 44.73461 | 20.89385 | 71° | 40km/h | 30628m | 4.9m/s | -40.7°C | 1.6% | 0hPa | 5.5V | 00:00:00 | 00:00:00 | 00:00:00 | |
| LZ4TU-5 | 2026-08-31 12:46:11 | 44.73448 | 20.89358 | 26° | 15km/h | 30600m | 6.0m/s | -40.9°C | 1.5% | 0hPa | 5.5V | 00:00:00 | 00:00:00 | 00:00:00 | |
| OE3JTB-15 | 2026-08-31 12:46:02 | 44.73378 | 20.89260 | 67° | 33km/h | 30530m | 7.4m/s | -41.3°C | 0% | 0hPa | 5.5V | 00:00:00 | 00:00:00 | 00:00:00 | |
| 9A1FER-3 | 2026-08-31 12:46:00 | 44.73378 | 20.89260 | 67° | 31km/h | 30530m | 7.4m/s | -41.3°C | 0% | 0hPa | 5.5V | 00:00:00 | 00:00:00 | 00:00:00 | |
| OE3JTB-15 | 2026-08-31 12:45:30 | 44.73162 | 20.89059 | 358° | 20km/h | 30308m | 10.4m/s | -41.8°C | 0% | 0hPa | 5.5V | 00:00:00 | 00:00:00 | 00:00:00 | |
| OM5KV | 2026-08-31 12:44:40 | 44.72762 | 20.89167 | 337° | 33km/h | 29983m | 6.6m/s | -42.4°C | 1.7% | 0hPa | 5.5V | 00:00:00 | 00:00:00 | 00:00:00 | |
| OM5KV | 2026-08-31 12:44:26 | 44.72695 | 20.89233 | 40° | 7km/h | 29887m | 5.2m/s | -42.5°C | 1.6% | 0hPa | 5.5V | 00:00:00 | 00:00:00 | 00:00:00 | |
| OM5KV | 2026-08-31 12:44:13 | 44.72678 | 20.89289 | 224° | 20km/h | 29797m | 8.1m/s | -42.8°C | 1.6% | 0hPa | 5.5V | 00:00:00 | 00:00:00 | 00:00:00 | |
| LZ4TU-5 | 2026-08-31 12:44:12 | 44.72681 | 20.89293 | 217° | 15km/h | 29792m | 5.3m/s | -42.9°C | 1.6% | 0hPa | 5.5V | 00:00:00 | 00:00:00 | 00:00:00 | |
| LZ4TU-5 | 2026-08-31 12:44:08 | 44.72677 | 20.89310 | 316° | 20km/h | 29763m | 4.0m/s | -43.2°C | 1.7% | 0hPa | 5.5V | 00:00:00 | 00:00:00 | 00:00:00 | |
| OM5KV | 2026-08-31 12:44:07 | 44.72674 | 20.89314 | 323° | 13km/h | 29758m | 6.0m/s | -43.3°C | 1.8% | 0hPa | 5.5V | 00:00:00 | 00:00:00 | 00:00:00 | |
| OM5KV | 2026-08-31 12:44:01 | 44.72686 | 20.89311 | 230° | 11km/h | 29711m | 5.4m/s | -43.5°C | 1.8% | 0hPa | 5.5V | 00:00:00 | 00:00:00 | 00:00:00 | |
| OM5KV | 2026-08-31 12:43:55 | 44.72677 | 20.89332 | 310° | 15km/h | 29667m | 8.5m/s | -43.6°C | 1.8% | 0hPa | 5.5V | 00:00:00 | 00:00:00 | 00:00:00 | |
| OM5KV | 2026-08-31 12:43:49 | 44.72669 | 20.89343 | 81° | 15km/h | 29625m | 6.5m/s | -43.6°C | 1.8% | 0hPa | 5.5V | 00:00:00 | 00:00:00 | 00:00:00 | |
| OM5KV | 2026-08-31 12:43:45 | 44.72670 | 20.89346 | 284° | 20km/h | 29598m | 6.7m/s | -43.4°C | 1.7% | 0hPa | 5.5V | 00:00:00 | 00:00:00 | 00:00:00 | |
| OM5KV | 2026-08-31 12:43:44 | 44.72669 | 20.89353 | 303° | 24km/h | 29589m | 8.8m/s | -43.3°C | 1.7% | 0hPa | 5.5V | 00:00:00 | 00:00:00 | 00:00:00 | |
| OM5KV | 2026-08-31 12:43:40 | 44.72649 | 20.89372 | 336° | 18km/h | 29562m | 8.8m/s | -43.4°C | 1.7% | 0hPa | 5.5V | 00:00:00 | 00:00:00 | 00:00:00 | |
| OM5KV | 2026-08-31 12:43:38 | 44.72645 | 20.89379 | 263° | 11km/h | 29547m | 7.0m/s | -43.3°C | 1.7% | 0hPa | 5.5V | 00:00:00 | 00:00:00 | 00:00:00 | |
| OM5KV | 2026-08-31 12:43:34 | 44.72643 | 20.89384 | 359° | 16km/h | 29519m | 7.2m/s | -43.4°C | 1.8% | 0hPa | 5.5V | 00:00:00 | 00:00:00 | 00:00:00 | |
| OM5KV | 2026-08-31 12:43:33 | 44.72639 | 20.89386 | 339° | 24km/h | 29511m | 8.0m/s | -43.4°C | 1.8% | 0hPa | 5.5V | 00:00:00 | 00:00:00 | 00:00:00 | |
| OM5KV | 2026-08-31 12:43:29 | 44.72621 | 20.89414 | 312° | 24km/h | 29484m | 6.9m/s | -43.7°C | 1.8% | 0hPa | 5.5V | 00:00:00 | 00:00:00 | 00:00:00 | |
| OM5KV | 2026-08-31 12:43:27 | 44.72613 | 20.89421 | 11° | 13km/h | 29468m | 7.2m/s | -43.7°C | 1.8% | 0hPa | 5.5V | 00:00:00 | 00:00:00 | 00:00:00 | |
| OM5KV | 2026-08-31 12:43:24 | 44.72608 | 20.89417 | 286° | 4km/h | 29448m | 7.5m/s | -43.7°C | 1.8% | 0hPa | 5.5V | 00:00:00 | 00:00:00 | 00:00:00 | |
| OM5KV | 2026-08-31 12:43:21 | 44.72607 | 20.89431 | 294° | 16km/h | 29428m | 7.9m/s | -43.8°C | 1.8% | 0hPa | 5.5V | 00:00:00 | 00:00:00 | 00:00:00 | |
| OM5KV | 2026-08-31 12:43:15 | 44.72586 | 20.89441 | 349° | 13km/h | 29384m | 7.3m/s | -43.8°C | 1.8% | 0hPa | 5.5V | 00:00:00 | 00:00:00 | 00:00:00 | |
| OM5KV | 2026-08-31 12:43:13 | 44.72578 | 20.89445 | 327° | 20km/h | 29370m | 5.8m/s | -43.8°C | 1.8% | 0hPa | 5.5V | 00:00:00 | 00:00:00 | 00:00:00 | |
| OM5KV | 2026-08-31 12:43:07 | 44.72576 | 20.89466 | 296° | 5km/h | 29325m | 7.7m/s | -43.5°C | 1.8% | 0hPa | 5.5V | 00:00:00 | 00:00:00 | 00:00:00 | |
| OM5KV | 2026-08-31 12:43:05 | 44.72573 | 20.89472 | 313° | 16km/h | 29312m | 5.5m/s | -43.6°C | 1.8% | 0hPa | 5.5V | 00:00:00 | 00:00:00 | 00:00:00 | |
| OM5KV | 2026-08-31 12:43:01 | 44.72569 | 20.89484 | 254° | 7km/h | 29287m | 5.1m/s | -43.6°C | 1.8% | 0hPa | 5.5V | 00:00:00 | 00:00:00 | 00:00:00 | |
| OM5KV | 2026-08-31 12:42:59 | 44.72569 | 20.89488 | 345° | 5km/h | 29270m | 7.1m/s | -43.6°C | 1.8% | 0hPa | 5.5V | 00:00:00 | 00:00:00 | 00:00:00 | |
| OM5KV | 2026-08-31 12:42:55 | 44.72567 | 20.89487 | 0° | 0km/h | 29242m | 5.5m/s | -43.7°C | 1.8% | 0hPa | 5.5V | 00:00:00 | 00:00:00 | 00:00:00 | |
| OM5KV | 2026-08-31 12:42:48 | 44.72559 | 20.89492 | 241° | 16km/h | 29184m | 5.0m/s | -43.5°C | 1.7% | 0hPa | 5.5V | 00:00:00 | 00:00:00 | 00:00:00 | |
| OM5KV | 2026-08-31 12:42:42 | 44.72554 | 20.89498 | 31° | 15km/h | 29147m | 5.5m/s | -43.5°C | 1.7% | 0hPa | 5.5V | 00:00:00 | 00:00:00 | 00:00:00 | |
| OM5KV | 2026-08-31 12:42:31 | 44.72550 | 20.89543 | 343° | 11km/h | 29064m | 9.2m/s | -43.2°C | 1.7% | 0hPa | 5.5V | 00:00:00 | 00:00:00 | 00:00:00 | |
| OM5KV | 2026-08-31 12:42:30 | 44.72549 | 20.89542 | 80° | 7km/h | 29057m | 7.4m/s | -43.2°C | 1.7% | 0hPa | 5.5V | 00:00:00 | 00:00:00 | 00:00:00 | |
| OM5KV | 2026-08-31 12:42:27 | 44.72556 | 20.89546 | 262° | 24km/h | 29028m | 7.0m/s | -43.2°C | 1.7% | 0hPa | 5.5V | 00:00:00 | 00:00:00 | 00:00:00 | |
| OM5KV | 2026-08-31 12:42:25 | 44.72557 | 20.89555 | 275° | 29km/h | 29021m | 6.9m/s | -43.3°C | 1.7% | 0hPa | 5.5V | 00:00:00 | 00:00:00 | 00:00:00 | |
| OM5KV | 2026-08-31 12:42:16 | 44.72542 | 20.89583 | 302° | 4km/h | 28951m | 4.0m/s | -43.5°C | 1.8% | 0hPa | 5.5V | 00:00:00 | 00:00:00 | 00:00:00 | |
| OM5KV | 2026-08-31 12:42:14 | 44.72541 | 20.89585 | 299° | 13km/h | 28944m | 7.6m/s | -43.5°C | 1.8% | 0hPa | 5.5V | 00:00:00 | 00:00:00 | 00:00:00 | |
| OM5KV | 2026-08-31 12:42:08 | 44.72507 | 20.89622 | 21° | 16km/h | 28900m | 6.8m/s | -43.5°C | 1.7% | 0hPa | 5.5V | 00:00:00 | 00:00:00 | 00:00:00 | |
| LZ4TU-5 | 2026-08-31 12:42:06 | 44.72503 | 20.89618 | 105° | 4km/h | 28883m | 8.1m/s | -43.3°C | 1.7% | 0hPa | 5.5V | 00:00:00 | 00:00:00 | 00:00:00 | |
| OM5KV | 2026-08-31 12:42:04 | 44.72504 | 20.89619 | 259° | 7km/h | 28870m | 5.8m/s | -43.1°C | 1.7% | 0hPa | 5.5V | 00:00:00 | 00:00:00 | 00:00:00 | |
| LZ4TU-5 | 2026-08-31 12:42:01 | 44.72501 | 20.89627 | 346° | 16km/h | 28849m | 7.1m/s | -43.0°C | 1.7% | 0hPa | 5.5V | 00:00:00 | 00:00:00 | 00:00:00 | |
| LZ4TU-5 | 2026-08-31 12:41:57 | 44.72478 | 20.89641 | 320° | 22km/h | 28820m | 5.8m/s | -42.9°C | 1.6% | 0hPa | 5.5V | 00:00:00 | 00:00:00 | 00:00:00 | |
| LZ4TU-5 | 2026-08-31 12:41:52 | 44.72464 | 20.89647 | 350° | 7km/h | 28787m | 5.5m/s | -42.9°C | 1.6% | 0hPa | 5.5V | 00:00:00 | 00:00:00 | 00:00:00 | |
| OM5KV | 2026-08-31 12:41:51 | 44.72462 | 20.89649 | 315° | 13km/h | 28778m | 8.9m/s | -42.8°C | 1.5% | 0hPa | 5.5V | 00:00:00 | 00:00:00 | 00:00:00 | |
| OM5KV | 2026-08-31 12:41:48 | 44.72449 | 20.89673 | 317° | 38km/h | 28755m | 8.2m/s | -42.7°C | 1.5% | 0hPa | 5.5V | 00:00:00 | 00:00:00 | 00:00:00 | |
| LZ4TU-5 | 2026-08-31 12:41:47 | 44.72442 | 20.89680 | 329° | 31km/h | 28748m | 7.2m/s | -42.7°C | 1.5% | 0hPa | 5.5V | 00:00:00 | 00:00:00 | 00:00:00 | |
| OM5KV | 2026-08-31 12:41:42 | 44.72427 | 20.89691 | 298° | 11km/h | 28711m | 6.0m/s | -42.8°C | 1.5% | 0hPa | 5.5V | 00:00:00 | 00:00:00 | 00:00:00 | |
| OM5KV | 2026-08-31 12:41:39 | 44.72420 | 20.89703 | 316° | 22km/h | 28691m | 4.8m/s | -43.0°C | 1.5% | 0hPa | 5.5V | 00:00:00 | 00:00:00 | 00:00:00 | |
| OM5KV | 2026-08-31 12:41:30 | 44.72388 | 20.89759 | 299° | 20km/h | 28624m | 7.7m/s | -43.0°C | 1.5% | 0hPa | 5.5V | 00:00:00 | 00:00:00 | 00:00:00 | |
| OM5KV | 2026-08-31 12:41:25 | 44.72375 | 20.89795 | 307° | 18km/h | 28586m | 4.0m/s | -43.3°C | 1.5% | 0hPa | 5.5V | 00:00:00 | 00:00:00 | 00:00:00 | |
| OM5KV | 2026-08-31 12:41:19 | 44.72377 | 20.89825 | 248° | 9km/h | 28546m | 10.4m/s | -43.2°C | 1.5% | 0hPa | 5.5V | 00:00:00 | 00:00:00 | 00:00:00 | |
| OM5KV | 2026-08-31 12:41:07 | 44.72395 | 20.89859 | 212° | 16km/h | 28463m | 6.9m/s | -43.2°C | 1.4% | 0hPa | 5.5V | 00:00:00 | 00:00:00 | 00:00:00 | |
| OM5KV | 2026-08-31 12:41:01 | 44.72409 | 20.89878 | 219° | 18km/h | 28420m | 8.1m/s | -43.2°C | 1.3% | 0hPa | 5.5V | 00:00:00 | 00:00:00 | 00:00:00 | |
| OM5KV | 2026-08-31 12:40:57 | 44.72424 | 20.89884 | 139° | 15km/h | 28387m | 5.2m/s | -43.5°C | 1.4% | 0hPa | 5.5V | 00:00:00 | 00:00:00 | 00:00:00 | |
| OM5KV | 2026-08-31 12:40:50 | 44.72427 | 20.89899 | 281° | 5km/h | 28345m | 7.2m/s | -43.5°C | 1.4% | 0hPa | 5.5V | 00:00:00 | 00:00:00 | 00:00:00 | |
| OM5KV | 2026-08-31 12:40:44 | 44.72452 | 20.89883 | 132° | 20km/h | 28301m | 8.0m/s | -43.6°C | 1.3% | 0hPa | 5.5V | 00:00:00 | 00:00:00 | 00:00:00 | |
| OM5KV | 2026-08-31 12:40:39 | 44.72459 | 20.89869 | 118° | 11km/h | 28269m | 6.4m/s | -43.7°C | 1.3% | 0hPa | 5.5V | 00:00:00 | 00:00:00 | 00:00:00 | |
| OM5KV | 2026-08-31 12:40:33 | 44.72469 | 20.89842 | 162° | 24km/h | 28228m | 10.3m/s | -43.7°C | 1.2% | 0hPa | 5.5V | 00:00:00 | 00:00:00 | 00:00:00 | |
| OM5KV | 2026-08-31 12:40:27 | 44.72493 | 20.89831 | 101° | 9km/h | 28186m | 10.0m/s | -43.8°C | 1.2% | 0hPa | 5.5V | 00:00:00 | 00:00:00 | 00:00:00 | |
| OE3JTB-15 | 2026-08-31 12:40:06 | 44.72534 | 20.89834 | 132° | 16km/h | 28024m | 9.2m/s | -43.5°C | 0% | 0hPa | 5.5V | 00:00:00 | 00:00:00 | 00:00:00 | |
| LZ4TU-5 | 2026-08-31 12:39:43 | 44.72572 | 20.89738 | 30° | 27km/h | 27889m | 7.6m/s | -45.1°C | 1.1% | 0hPa | 5.6V | 00:00:00 | 00:00:00 | 00:00:00 | |
| LZ4TU-5 | 2026-08-31 12:39:39 | 44.72560 | 20.89717 | 101° | 20km/h | 27857m | 5.2m/s | -45.3°C | 1.1% | 0hPa | 5.6V | 00:00:00 | 00:00:00 | 00:00:00 | |
| LZ4TU-5 | 2026-08-31 12:37:37 | 44.72655 | 20.89283 | 68° | 27km/h | 27051m | 6.3m/s | -47.7°C | 1.0% | 0hPa | 5.6V | 00:00:00 | 00:00:00 | 00:00:00 | |
| LZ4TU-5 | 2026-08-31 12:37:34 | 44.72651 | 20.89248 | 103° | 16km/h | 27024m | 6.2m/s | -47.6°C | 1.0% | 0hPa | 5.6V | 00:00:00 | 00:00:00 | 00:00:00 | |
| LZ4TU-5 | 2026-08-31 12:35:23 | 44.72517 | 20.88936 | 125° | 16km/h | 26146m | 8.5m/s | -48.3°C | 0.9% | 0hPa | 5.6V | 00:00:00 | 00:00:00 | 00:00:00 | |
| OE3JTB-15 | 2026-08-31 12:35:08 | 44.72540 | 20.88850 | 87° | 16km/h | 26024m | 7.1m/s | -48.0°C | 0% | 0hPa | 5.6V | 00:00:00 | 00:00:00 | 00:00:00 | |
| LZ4TU-5 | 2026-08-31 12:33:32 | 44.72532 | 20.88625 | 40° | 22km/h | 25408m | 6.4m/s | -49.9°C | 0.5% | 0hPa | 5.6V | 00:00:00 | 00:00:00 | 00:00:00 | |
| LZ4TU-5 | 2026-08-31 12:33:27 | 44.72509 | 20.88608 | 51° | 16km/h | 25377m | 6.4m/s | -50.0°C | 0.5% | 0hPa | 5.6V | 00:00:00 | 00:00:00 | 00:00:00 | |
| OE3JTB-15 | 2026-08-31 12:33:16 | 44.72458 | 20.88550 | 19° | 22km/h | 25286m | 7.6m/s | -50.3°C | 0% | 0hPa | 5.6V | 00:00:00 | 00:00:00 | 00:00:00 | |
| OE3JTB-15 | 2026-08-31 12:32:22 | 44.72315 | 20.88642 | 319° | 11km/h | 24938m | 7.3m/s | -50.2°C | 0% | 0hPa | 5.6V | 00:00:00 | 00:00:00 | 00:00:00 | |
| OE3JTB-15 | 2026-08-31 12:31:50 | 44.72326 | 20.88647 | 124° | 20km/h | 24738m | 5.2m/s | -50.1°C | 0% | 0hPa | 5.6V | 00:00:00 | 00:00:00 | 00:00:00 | |
| LZ4TU-5 | 2026-08-31 12:31:37 | 44.72338 | 20.88606 | 86° | 7km/h | 24673m | 6.7m/s | -50.9°C | 0.5% | 0hPa | 5.6V | 00:00:00 | 00:00:00 | 00:00:00 | |
| LZ4TU-5 | 2026-08-31 12:31:33 | 44.72338 | 20.88576 | 108° | 29km/h | 24646m | 6.9m/s | -51.0°C | 0.5% | 0hPa | 5.6V | 00:00:00 | 00:00:00 | 00:00:00 | |
| OE3JTB-15 | 2026-08-31 12:31:21 | 44.72353 | 20.88436 | 84° | 24km/h | 24552m | 6.7m/s | -50.8°C | 0% | 0hPa | 5.6V | 00:00:00 | 00:00:00 | 00:00:00 | |
| OE3JTB-15 | 2026-08-31 12:30:11 | 44.72215 | 20.88247 | 18° | 20km/h | 24112m | 5.5m/s | -51.1°C | 0% | 0hPa | 5.6V | 00:00:00 | 00:00:00 | 00:00:00 | |
| LZ4TU-5 | 2026-08-31 12:29:44 | 44.72116 | 20.88140 | 10° | 29km/h | 23958m | 6.0m/s | -51.7°C | 0.5% | 0hPa | 5.6V | 00:00:00 | 00:00:00 | 00:00:00 | |
| LZ4TU-5 | 2026-08-31 12:29:40 | 44.72092 | 20.88134 | 26° | 22km/h | 23933m | 6.6m/s | -51.6°C | 0.4% | 0hPa | 5.6V | 00:00:00 | 00:00:00 | 00:00:00 | |
| OE3JTB-15 | 2026-08-31 12:29:30 | 44.72018 | 20.88105 | 13° | 16km/h | 23849m | 6.8m/s | -51.1°C | 0% | 0hPa | 5.6V | 00:00:00 | 00:00:00 | 00:00:00 | |
| OE3JTB-15 | 2026-08-31 12:28:15 | 44.71884 | 20.88059 | 351° | 15km/h | 23361m | 5.0m/s | -51.2°C | 0% | 0hPa | 5.6V | 00:00:00 | 00:00:00 | 00:00:00 | |
| LZ4TU-5 | 2026-08-31 12:27:55 | 44.71824 | 20.88092 | 356° | 9km/h | 23260m | 6.2m/s | -52.0°C | 0.6% | 0hPa | 5.6V | 00:00:00 | 00:00:00 | 00:00:00 | |
| LZ4TU-5 | 2026-08-31 12:27:50 | 44.71808 | 20.88108 | 270° | 24km/h | 23227m | 4.3m/s | -51.9°C | 0.5% | 0hPa | 5.6V | 00:00:00 | 00:00:00 | 00:00:00 | |
| OE3JTB-15 | 2026-08-31 12:27:35 | 44.71805 | 20.88156 | 298° | 9km/h | 23113m | 4.6m/s | -51.0°C | 0% | 0hPa | 5.6V | 00:00:00 | 00:00:00 | 00:00:00 | |
| LZ4TU-5 | 2026-08-31 12:26:06 | 44.71631 | 20.88125 | 8° | 29km/h | 22576m | 6.2m/s | -53.0°C | 0.6% | 0hPa | 5.6V | 00:00:00 | 00:00:00 | 00:00:00 | |
| LZ4TU-5 | 2026-08-31 12:26:02 | 44.71614 | 20.88118 | 63° | 9km/h | 22552m | 6.2m/s | -52.9°C | 0.6% | 0hPa | 5.6V | 00:00:00 | 00:00:00 | 00:00:00 | |
| OE3JTB-15 | 2026-08-31 12:24:59 | 44.71489 | 20.88173 | 8° | 11km/h | 22135m | 8.2m/s | -52.0°C | 0% | 0hPa | 5.6V | 00:00:00 | 00:00:00 | 00:00:00 | |
| OE3JTB-15 | 2026-08-31 12:24:20 | 44.71371 | 20.88194 | 338° | 9km/h | 21893m | 6.2m/s | -52.5°C | 0% | 0hPa | 5.6V | 00:00:00 | 00:00:00 | 00:00:00 | |
| LZ4TU-5 | 2026-08-31 12:24:16 | 44.71368 | 20.88195 | 341° | 11km/h | 21886m | 5.9m/s | -53.1°C | 0.5% | 0hPa | 5.6V | 00:00:00 | 00:00:00 | 00:00:00 | |
| LZ4TU-5 | 2026-08-31 12:24:11 | 44.71369 | 20.88194 | 124° | 9km/h | 21856m | 6.3m/s | -53.0°C | 0.4% | 0hPa | 5.6V | 00:00:00 | 00:00:00 | 00:00:00 | |
| OE3JTB-15 | 2026-08-31 12:23:51 | 44.71332 | 20.88204 | 306° | 18km/h | 21717m | 4.9m/s | -52.3°C | 0% | 0hPa | 5.6V | 00:00:00 | 00:00:00 | 00:00:00 | |
| OE3JTB-15 | 2026-08-31 12:23:17 | 44.71195 | 20.88269 | 340° | 18km/h | 21500m | 8.7m/s | -53.3°C | 0% | 0hPa | 5.6V | 00:00:00 | 00:00:00 | 00:00:00 | |
| LZ4TU-5 | 2026-08-31 12:22:26 | 44.71054 | 20.88373 | 262° | 22km/h | 21219m | 6.3m/s | -53.7°C | 0.1% | 0hPa | 5.6V | 00:00:00 | 00:00:00 | 00:00:00 | |
| LZ4TU-5 | 2026-08-31 12:22:21 | 44.71034 | 20.88380 | 20° | 37km/h | 21191m | 5.2m/s | -54.0°C | 0.3% | 0hPa | 5.6V | 00:00:00 | 00:00:00 | 00:00:00 | |
| OE3JTB-15 | 2026-08-31 12:22:18 | 44.71014 | 20.88376 | 278° | 22km/h | 21156m | 4.3m/s | -53.0°C | 0% | 0hPa | 5.6V | 00:00:00 | 00:00:00 | 00:00:00 | |
| OE3JTB-15 | 2026-08-31 12:21:49 | 44.70906 | 20.88479 | 289° | 16km/h | 20974m | 7.2m/s | -53.0°C | 0% | 0hPa | 5.7V | 00:00:00 | 00:00:00 | 00:00:00 | |
| LZ4TU-5 | 2026-08-31 12:20:37 | 44.70651 | 20.88626 | 312° | 16km/h | 20578m | 6.1m/s | -54.1°C | 0.3% | 0hPa | 5.7V | 00:00:00 | 00:00:00 | 00:00:00 | |
| LZ4TU-5 | 2026-08-31 12:20:32 | 44.70638 | 20.88646 | 327° | 15km/h | 20549m | 6.5m/s | -54.0°C | 0.2% | 0hPa | 5.7V | 00:00:00 | 00:00:00 | 00:00:00 | |
| OE3JTB-15 | 2026-08-31 12:19:46 | 44.70545 | 20.88688 | 10° | 18km/h | 20254m | 6.1m/s | -54.5°C | 0% | 0hPa | 5.7V | 00:00:00 | 00:00:00 | 00:00:00 | |
| OE3JTB-15 | 2026-08-31 12:19:16 | 44.70419 | 20.88655 | 14° | 11km/h | 20083m | 6.3m/s | -54.8°C | 0% | 0hPa | 5.7V | 00:00:00 | 00:00:00 | 00:00:00 | |
| OE3JTB-15 | 2026-08-31 12:18:46 | 44.70341 | 20.88655 | 55° | 20km/h | 19904m | 5.1m/s | -55.5°C | 0% | 0hPa | 5.7V | 00:00:00 | 00:00:00 | 00:00:00 | |
| LZ4TU-5 | 2026-08-31 12:18:38 | 44.70351 | 20.88645 | 156° | 15km/h | 19876m | 5.1m/s | -56.3°C | 0.3% | 0hPa | 5.7V | 00:00:00 | 00:00:00 | 00:00:00 | |
| LZ4TU-5 | 2026-08-31 12:18:34 | 44.70356 | 20.88629 | 84° | 16km/h | 19854m | 5.4m/s | -56.3°C | 0.3% | 0hPa | 5.7V | 00:00:00 | 00:00:00 | 00:00:00 | |
| OE3JTB-15 | 2026-08-31 12:18:17 | 44.70315 | 20.88492 | 68° | 16km/h | 19733m | 5.1m/s | -55.2°C | 0% | 0hPa | 5.7V | 00:00:00 | 00:00:00 | 00:00:00 | |
| OE3JTB-15 | 2026-08-31 12:17:46 | 44.70214 | 20.88377 | 336° | 7km/h | 19548m | 5.9m/s | -55.3°C | 0% | 0hPa | 5.7V | 00:00:00 | 00:00:00 | 00:00:00 | |
| LZ4TU-5 | 2026-08-31 12:16:44 | 44.70184 | 20.88134 | 61° | 7km/h | 19213m | 6.2m/s | -56.8°C | 0.0% | 0hPa | 0V | 00:00:00 | 00:00:00 | 00:00:00 | |
| LZ4TU-5 | 2026-08-31 12:16:39 | 44.70173 | 20.88111 | 63° | 20km/h | 19183m | 8.1m/s | -56.7°C | 0.0% | 0hPa | 0V | 00:00:00 | 00:00:00 | 00:00:00 | |
| LZ4TU-5 | 2026-08-31 12:14:55 | 44.69794 | 20.87940 | 41° | 5km/h | 18571m | 4.3m/s | -59.2°C | 0.3% | 0hPa | 0V | 00:00:00 | 00:00:00 | 00:00:00 | |
| LZ4TU-5 | 2026-08-31 12:14:52 | 44.69781 | 20.87939 | 336° | 24km/h | 18549m | 7.0m/s | -59.2°C | 0.4% | 0hPa | 0V | 00:00:00 | 00:00:00 | 00:00:00 | |
| LZ4TU-5 | 2026-08-31 12:13:11 | 44.69624 | 20.88127 | 114° | 16km/h | 17974m | 3.8m/s | -56.8°C | 1.1% | 0hPa | 0V | 00:00:00 | 00:00:00 | 00:00:00 | |
| LZ4TU-5 | 2026-08-31 12:13:07 | 44.69634 | 20.88108 | 135° | 11km/h | 17952m | 6.1m/s | -56.6°C | 1.0% | 0hPa | 0V | 00:00:00 | 00:00:00 | 00:00:00 | |
| LZ4TU-5 | 2026-08-31 12:11:29 | 44.69663 | 20.87189 | 65° | 33km/h | 17410m | 6.2m/s | -56.5°C | 1.4% | 0hPa | 0V | 00:00:00 | 00:00:00 | 00:00:00 | |
| LZ4TU-5 | 2026-08-31 12:11:24 | 44.69652 | 20.87144 | 85° | 24km/h | 17383m | 5.7m/s | -56.5°C | 1.4% | 0hPa | 0V | 00:00:00 | 00:00:00 | 00:00:00 | |
| LZ4TU-5 | 2026-08-31 12:09:42 | 44.69293 | 20.86213 | 33° | 31km/h | 16826m | 5.5m/s | -58.3°C | 2.0% | 0hPa | 0V | 00:00:00 | 00:00:00 | 00:00:00 | |
| LZ4TU-5 | 2026-08-31 12:09:37 | 44.69267 | 20.86175 | 53° | 22km/h | 16799m | 4.9m/s | -58.4°C | 2.0% | 0hPa | 0V | 00:00:00 | 00:00:00 | 00:00:00 | |
| LZ4TU-5 | 2026-08-31 12:07:57 | 44.69142 | 20.85404 | 94° | 42km/h | 16260m | 5.5m/s | -59.9°C | 2.5% | 0hPa | 0V | 00:00:00 | 00:00:00 | 00:00:00 | |
| LZ4TU-5 | 2026-08-31 12:07:52 | 44.69145 | 20.85364 | 133° | 18km/h | 16231m | 4.6m/s | -60.1°C | 2.9% | 0hPa | 0V | 00:00:00 | 00:00:00 | 00:00:00 | |
| LZ4TU-5 | 2026-08-31 12:06:14 | 44.69200 | 20.83598 | 94° | 47km/h | 15710m | 4.9m/s | -60.1°C | 5.0% | 0hPa | 0V | 00:00:00 | 00:00:00 | 00:00:00 | |
| LZ4TU-5 | 2026-08-31 12:06:09 | 44.69195 | 20.83520 | 81° | 42km/h | 15683m | 5.6m/s | -60.6°C | 5.2% | 0hPa | 0V | 00:00:00 | 00:00:00 | 00:00:00 | |
| LZ4TU-5 | 2026-08-31 12:04:31 | 44.69184 | 20.82290 | 111° | 16km/h | 15168m | 4.8m/s | -59.4°C | 6.1% | 0hPa | 0V | 00:00:00 | 00:00:00 | 00:00:00 | |
| LZ4TU-5 | 2026-08-31 12:04:27 | 44.69197 | 20.82260 | 115° | 42km/h | 15150m | 5.5m/s | -59.3°C | 6.2% | 0hPa | 0V | 00:00:00 | 00:00:00 | 00:00:00 | |
| LZ4TU-5 | 2026-08-31 12:02:48 | 44.69616 | 20.80696 | 117° | 58km/h | 14628m | 4.8m/s | -60.4°C | 10.5% | 0hPa | 0V | 00:00:00 | 00:00:00 | 00:00:00 | |
| LZ4TU-5 | 2026-08-31 12:02:44 | 44.69637 | 20.80618 | 110° | 58km/h | 14609m | 5.1m/s | -60.8°C | 10.7% | 0hPa | 0V | 00:00:00 | 00:00:00 | 00:00:00 | |
| LZ4TU-5 | 2026-08-31 12:01:07 | 44.69936 | 20.79010 | 122° | 49km/h | 14097m | 5.7m/s | -62.0°C | 13.9% | 0hPa | 0V | 00:00:00 | 00:00:00 | 00:00:00 | |
| LZ4TU-5 | 2026-08-31 12:01:02 | 44.69968 | 20.78930 | 122° | 46km/h | 14073m | 5.7m/s | -62.0°C | 14.2% | 0hPa | 0V | 00:00:00 | 00:00:00 | 00:00:00 | |
| LZ4TU-5 | 2026-08-31 11:59:19 | 44.70845 | 20.77058 | 125° | 75km/h | 13537m | 5.1m/s | -60.9°C | 19.9% | 0hPa | 0V | 00:00:00 | 00:00:00 | 00:00:00 | |
| LZ4TU-5 | 2026-08-31 11:59:15 | 44.70894 | 20.76964 | 126° | 93km/h | 13516m | 4.7m/s | -60.8°C | 20.1% | 0hPa | 0V | 00:00:00 | 00:00:00 | 00:00:00 | |
| LZ4TU-5 | 2026-08-31 11:57:36 | 44.71990 | 20.74553 | 121° | 88km/h | 13020m | 4.2m/s | -59.3°C | 25.1% | 0hPa | 0V | 00:00:00 | 00:00:00 | 00:00:00 | |
| LZ4TU-5 | 2026-08-31 11:57:32 | 44.72047 | 20.74415 | 123° | 82km/h | 12995m | 4.3m/s | -59.2°C | 25.4% | 0hPa | 0V | 00:00:00 | 00:00:00 | 00:00:00 | |
| LZ4TU-5 | 2026-08-31 11:55:39 | 44.73209 | 20.71558 | 121° | 93km/h | 12458m | 5.9m/s | -57.7°C | 38.1% | 0hPa | 0V | 00:00:00 | 00:00:00 | 00:00:00 | |
| LZ4TU-5 | 2026-08-31 11:55:35 | 44.73254 | 20.71443 | 122° | 89km/h | 12438m | 5.1m/s | -57.7°C | 38.4% | 0hPa | 0V | 00:00:00 | 00:00:00 | 00:00:00 | |
| LZ4TU-5 | 2026-08-31 11:53:56 | 44.74432 | 20.68660 | 131° | 80km/h | 11923m | 5.1m/s | -54.0°C | 39.3% | 0hPa | 0V | 00:00:00 | 00:00:00 | 00:00:00 | |
| LZ4TU-5 | 2026-08-31 11:53:52 | 44.74470 | 20.68559 | 113° | 84km/h | 11902m | 6.0m/s | -53.8°C | 39.2% | 0hPa | 0V | 00:00:00 | 00:00:00 | 00:00:00 | |
| LZ4TU-5 | 2026-08-31 11:52:14 | 44.75616 | 20.65951 | 118° | 89km/h | 11383m | 5.4m/s | -50.1°C | 38.9% | 0hPa | 0V | 00:00:00 | 00:00:00 | 00:00:00 | |
| LZ4TU-5 | 2026-08-31 11:52:09 | 44.75664 | 20.65821 | 122° | 77km/h | 11361m | 5.6m/s | -50.0°C | 38.8% | 0hPa | 0V | 00:00:00 | 00:00:00 | 00:00:00 | |
| LZ4TU-5 | 2026-08-31 11:50:27 | 44.76731 | 20.63360 | 120° | 73km/h | 10790m | 4.6m/s | -45.0°C | 28.6% | 0hPa | 0V | 00:00:00 | 00:00:00 | 00:00:00 | |
| LZ4TU-5 | 2026-08-31 11:50:22 | 44.76773 | 20.63248 | 122° | 71km/h | 10765m | 4.2m/s | -44.7°C | 28.2% | 0hPa | 0V | 00:00:00 | 00:00:00 | 00:00:00 | |
| LZ4TU-5 | 2026-08-31 11:48:47 | 44.77610 | 20.61135 | 110° | 75km/h | 10298m | 7.0m/s | -40.8°C | 23.5% | 0hPa | 0V | 00:00:00 | 00:00:00 | 00:00:00 | |
| LZ4TU-5 | 2026-08-31 11:48:42 | 44.77645 | 20.61031 | 119° | 78km/h | 10267m | 7.5m/s | -40.5°C | 23.2% | 0hPa | 0V | 00:00:00 | 00:00:00 | 00:00:00 | |
| LZ4TU-5 | 2026-08-31 11:47:03 | 44.78493 | 20.58819 | 112° | 75km/h | 9750m | 4.3m/s | -36.2°C | 18.2% | 0hPa | 0V | 00:00:00 | 00:00:00 | 00:00:00 | |
| LZ4TU-5 | 2026-08-31 11:46:59 | 44.78538 | 20.58699 | 125° | 75km/h | 9724m | 5.0m/s | -36.0°C | 17.9% | 0hPa | 0V | 00:00:00 | 00:00:00 | 00:00:00 | |
| LZ4TU-5 | 2026-08-31 11:45:24 | 44.79178 | 20.56827 | 102° | 46km/h | 9229m | 5.2m/s | -33.0°C | 21.3% | 0hPa | 0V | 00:00:00 | 00:00:00 | 00:00:00 | |
| LZ4TU-5 | 2026-08-31 11:45:20 | 44.79201 | 20.56773 | 127° | 57km/h | 9208m | 5.1m/s | -32.7°C | 20.9% | 0hPa | 0V | 00:00:00 | 00:00:00 | 00:00:00 | |
| LZ4TU-5 | 2026-08-31 11:43:29 | 44.79723 | 20.54925 | 109° | 47km/h | 8608m | 5.5m/s | -27.4°C | 11.9% | 0hPa | 0V | 00:00:00 | 00:00:00 | 00:00:00 | |
| LZ4TU-5 | 2026-08-31 11:43:24 | 44.79743 | 20.54856 | 115° | 53km/h | 8590m | 5.1m/s | -27.2°C | 11.6% | 0hPa | 0V | 00:00:00 | 00:00:00 | 00:00:00 | |
| LZ4TU-5 | 2026-08-31 11:41:51 | 44.79997 | 20.53292 | 108° | 55km/h | 8135m | 5.6m/s | -24.0°C | 10.9% | 0hPa | 0V | 00:00:00 | 00:00:00 | 00:00:00 | |
| LZ4TU-5 | 2026-08-31 11:41:47 | 44.80014 | 20.53224 | 100° | 38km/h | 8108m | 6.4m/s | -23.8°C | 11.4% | 0hPa | 0V | 00:00:00 | 00:00:00 | 00:00:00 | |
| LZ4TU-5 | 2026-08-31 11:40:10 | 44.80119 | 20.51617 | 86° | 44km/h | 7578m | 6.7m/s | -20.4°C | 17.3% | 0hPa | 0V | 00:00:00 | 00:00:00 | 00:00:00 | |
| LZ4TU-5 | 2026-08-31 11:40:05 | 44.80115 | 20.51533 | 92° | 57km/h | 7547m | 5.2m/s | -20.1°C | 17.1% | 0hPa | 0V | 00:00:00 | 00:00:00 | 00:00:00 | |
| LZ4TU-5 | 2026-08-31 11:38:32 | 44.80019 | 20.50097 | 88° | 64km/h | 7072m | 4.5m/s | -15.8°C | 9.2% | 0hPa | 0V | 00:00:00 | 00:00:00 | 00:00:00 | |
| LZ4TU-5 | 2026-08-31 11:38:27 | 44.80002 | 20.50028 | 83° | 22km/h | 7042m | 5.3m/s | -15.6°C | 9.3% | 0hPa | 0V | 00:00:00 | 00:00:00 | 00:00:00 | |
| LZ4TU-5 | 2026-08-31 11:38:22 | 44.80008 | 20.49974 | 84° | 46km/h | 7017m | 5.8m/s | -15.4°C | 9.3% | 0hPa | 0V | 00:00:00 | 00:00:00 | 00:00:00 | |
| LZ4TU-5 | 2026-08-31 11:38:17 | 44.80001 | 20.49895 | 81° | 26km/h | 6982m | 7.5m/s | -15.2°C | 9.3% | 0hPa | 0V | 00:00:00 | 00:00:00 | 00:00:00 | |
| LZ4TU-5 | 2026-08-31 11:38:11 | 44.79988 | 20.49831 | 91° | 44km/h | 6952m | 4.8m/s | -14.9°C | 9.3% | 0hPa | 0V | 00:00:00 | 00:00:00 | 00:00:00 | |
| LZ4TU-5 | 2026-08-31 11:37:58 | 44.79969 | 20.49642 | 71° | 29km/h | 6892m | 5.4m/s | -14.5°C | 9.2% | 0hPa | 0V | 00:00:00 | 00:00:00 | 00:00:00 | |
| LZ4TU-5 | 2026-08-31 11:37:47 | 44.79964 | 20.49499 | 41° | 38km/h | 6827m | 5.7m/s | -13.9°C | 9.1% | 0hPa | 0V | 00:00:00 | 00:00:00 | 00:00:00 | |
| LZ4TU-5 | 2026-08-31 11:37:41 | 44.79937 | 20.49424 | 96° | 37km/h | 6793m | 6.3m/s | -13.6°C | 9.2% | 0hPa | 0V | 00:00:00 | 00:00:00 | 00:00:00 |